Time;durP1;ratioP1;P1;durP2;ratioP2;P2;SDS_P1;SDS_P2;PMS_P1;PMS_P2;Temp;Humidity;BMP_temperature;BMP_pressure;BME280_temperature;BME280_humidity;BME280_pressure;Samples;Min_cycle;Max_cycle;Signal;HPM_P1;HPM_P2
2022/01/30 00:00:23;;;;;;;25.85;4.38;;;;;;;;;;5150721;27;20939;-62
2022/01/30 00:02:51;;;;;;;26.77;4.53;;;;;;;;;;5151021;27;20051;-62
2022/01/30 00:05:18;;;;;;;25.63;3.92;;;;;;;;;;5150666;27;20099;-62
2022/01/30 00:07:45;;;;;;;27.83;4.22;;;;;;;;;;5151123;27;20059;-62
2022/01/30 00:10:15;;;;;;;26.00;4.35;;;;;;;;;;5151206;27;20420;-62
2022/01/30 00:12:55;;;;;;;22.60;3.95;;;;;;;;;;5151303;27;20057;-62
2022/01/30 00:15:36;;;;;;;28.00;4.55;;;;;;;;;;5149962;27;20509;-62
2022/01/30 00:18:14;;;;;;;26.10;3.80;;;;;;;;;;5150470;27;20051;-62
2022/01/30 00:20:45;;;;;;;25.58;3.92;;;;;;;;;;5151184;27;20043;-62
2022/01/30 00:23:17;;;;;;;23.33;3.53;;;;;;;;;;5150147;27;20499;-62
2022/01/30 00:25:52;;;;;;;26.23;4.80;;;;;;;;;;5150681;27;20051;-62
2022/01/30 00:28:21;;;;;;;24.98;3.83;;;;;;;;;;5150280;27;20045;-62
2022/01/30 00:30:49;;;;;;;25.27;4.88;;;;;;;;;;5150786;27;20504;-62
2022/01/30 00:33:15;;;;;;;25.30;3.58;;;;;;;;;;5150916;27;20496;-62
2022/01/30 00:35:42;;;;;;;26.35;3.67;;;;;;;;;;5150100;27;20097;-62
2022/01/30 00:38:15;;;;;;;22.20;3.63;;;;;;;;;;5149874;27;20450;-62
2022/01/30 00:40:43;;;;;;;27.58;4.40;;;;;;;;;;5150381;27;20597;-62
2022/01/30 00:43:09;;;;;;;30.75;4.35;;;;;;;;;;5150765;27;20509;-62
2022/01/30 00:45:36;;;;;;;24.45;3.80;;;;;;;;;;5150209;27;20051;-62
2022/01/30 00:48:03;;;;;;;30.92;3.03;;;;;;;;;;5149598;27;20042;-62
2022/01/30 00:50:30;;;;;;;29.80;4.32;;;;;;;;;;5150668;27;20150;-62
2022/01/30 00:52:56;;;;;;;21.77;3.42;;;;;;;;;;5150066;27;20108;-62
2022/01/30 00:55:24;;;;;;;23.45;4.35;;;;;;;;;;5149783;27;20050;-62
2022/01/30 00:57:51;;;;;;;21.30;3.88;;;;;;;;;;5149884;27;20112;-62
2022/01/30 01:00:17;;;;;;;30.67;4.22;;;;;;;;;;5149906;27;20047;-62
2022/01/30 01:02:44;;;;;;;29.33;3.95;;;;;;;;;;5150334;27;20141;-62
2022/01/30 01:05:11;;;;;;;28.80;4.53;;;;;;;;;;5150383;27;20146;-62
2022/01/30 01:07:42;;;;;;;26.60;4.25;;;;;;;;;;5149958;27;20481;-62
2022/01/30 01:10:16;;;;;;;25.58;4.03;;;;;;;;;;5148669;27;20055;-62
2022/01/30 01:13:01;;;;;;;24.83;3.83;;;;;;;;;;5149583;27;20055;-62
2022/01/30 01:23:21;;;;;;;21.42;3.50;;;;;;;;;;5150302;27;20047;-62
2022/01/30 01:23:49;;;;;;;16.25;3.13;;;;;;;;;;5150306;27;20055;-62
2022/01/30 01:26:16;;;;;;;29.85;4.18;;;;;;;;;;5149796;27;20055;-62
2022/01/30 01:28:43;;;;;;;21.88;4.30;;;;;;;;;;5150250;27;20051;-62
2022/01/30 01:31:10;;;;;;;20.08;3.38;;;;;;;;;;5149265;27;20059;-62
2022/01/30 01:36:12;;;;;;;21.15;3.10;;;;;;;;;;5149030;27;20058;-62
2022/01/30 01:38:38;;;;;;;20.52;3.53;;;;;;;;;;5149612;27;20056;-62
2022/01/30 01:41:05;;;;;;;25.02;4.00;;;;;;;;;;5148995;27;21009;-63
2022/01/30 01:43:32;;;;;;;16.05;2.70;;;;;;;;;;5149268;27;20058;-62
2022/01/30 01:46:00;;;;;;;23.42;3.50;;;;;;;;;;5149150;27;20054;-62
2022/01/30 01:48:26;;;;;;;24.95;3.53;;;;;;;;;;5149134;27;20049;-62
2022/01/30 01:50:55;;;;;;;29.30;4.15;;;;;;;;;;5149758;27;20047;-62
2022/01/30 01:53:23;;;;;;;28.85;3.15;;;;;;;;;;5149202;27;20055;-62
2022/01/30 01:55:49;;;;;;;25.92;3.42;;;;;;;;;;5149655;27;20053;-62
2022/01/30 01:58:16;;;;;;;17.83;3.35;;;;;;;;;;5152499;27;20062;-62
2022/01/30 02:00:42;;;;;;;20.63;3.13;;;;;;;;;;5153126;27;20497;-62
2022/01/30 02:03:09;;;;;;;33.20;4.07;;;;;;;;;;5152738;27;20055;-62
2022/01/30 02:05:39;;;;;;;23.27;4.05;;;;;;;;;;5152153;27;20059;-62
2022/01/30 02:11:27;;;;;;;24.98;3.97;;;;;;;;;;5152428;27;20040;-62
2022/01/30 02:14:01;;;;;;;22.20;3.53;;;;;;;;;;5148080;27;20051;-62
2022/01/30 02:25:23;;;;;;;22.05;3.17;;;;;;;;;;5151754;27;20051;-63
2022/01/30 02:27:37;;;;;;;16.67;2.40;;;;;;;;;;5152257;27;20055;-62
2022/01/30 02:30:13;;;;;;;21.55;3.35;;;;;;;;;;5151540;27;20040;-62
2022/01/30 02:32:40;;;;;;;16.48;3.00;;;;;;;;;;5151594;27;20061;-62
2022/01/30 02:35:06;;;;;;;13.13;2.10;;;;;;;;;;5151612;27;20051;-62
2022/01/30 02:37:33;;;;;;;20.20;2.65;;;;;;;;;;5151449;27;20515;-62
2022/01/30 02:39:59;;;;;;;19.73;3.10;;;;;;;;;;5151016;27;20063;-62
2022/01/30 02:42:30;;;;;;;17.77;2.45;;;;;;;;;;5151143;27;20052;-62
2022/01/30 02:45:00;;;;;;;17.23;2.20;;;;;;;;;;5151470;27;20055;-63
2022/01/30 02:48:15;;;;;;;15.80;2.17;;;;;;;;;;5150904;27;20108;-62
2022/01/30 02:50:19;;;;;;;14.23;3.03;;;;;;;;;;5139686;27;20508;-62
2022/01/30 02:52:55;;;;;;;19.77;2.92;;;;;;;;;;5151289;27;20451;-62
2022/01/30 02:55:22;;;;;;;16.88;3.55;;;;;;;;;;5151192;27;20142;-62
2022/01/30 02:57:49;;;;;;;17.95;2.22;;;;;;;;;;5151184;27;20051;-62
2022/01/30 03:00:15;;;;;;;20.58;2.40;;;;;;;;;;5150816;27;20105;-62
2022/01/30 03:02:41;;;;;;;18.42;3.22;;;;;;;;;;5150942;27;20047;-62
2022/01/30 03:05:08;;;;;;;22.50;3.08;;;;;;;;;;5150712;27;20921;-62
2022/01/30 03:07:34;;;;;;;18.20;2.33;;;;;;;;;;5151285;27;20055;-62
2022/01/30 03:10:01;;;;;;;21.88;3.13;;;;;;;;;;5150505;27;20047;-62
2022/01/30 03:12:27;;;;;;;21.13;3.50;;;;;;;;;;5150786;27;20036;-62
2022/01/30 03:14:53;;;;;;;19.52;2.63;;;;;;;;;;5150313;27;20062;-62
2022/01/30 03:17:20;;;;;;;25.98;3.47;;;;;;;;;;5151182;27;20090;-62
2022/01/30 03:19:46;;;;;;;17.58;2.47;;;;;;;;;;5151212;27;20547;-62
2022/01/30 03:22:12;;;;;;;25.48;3.10;;;;;;;;;;5149912;27;20043;-62
2022/01/30 03:24:39;;;;;;;15.35;2.72;;;;;;;;;;5150510;27;20050;-62
2022/01/30 03:27:07;;;;;;;21.40;3.08;;;;;;;;;;5151078;27;20055;-62
2022/01/30 03:29:34;;;;;;;17.45;2.30;;;;;;;;;;5150821;27;20934;-62
2022/01/30 03:32:00;;;;;;;10.82;2.15;;;;;;;;;;5150765;27;20124;-62
2022/01/30 03:34:27;;;;;;;19.20;2.47;;;;;;;;;;5150193;27;20051;-62
2022/01/30 03:36:53;;;;;;;24.75;2.85;;;;;;;;;;5150408;27;20051;-62
2022/01/30 03:39:20;;;;;;;12.10;2.22;;;;;;;;;;5150447;27;20138;-63
2022/01/30 03:41:46;;;;;;;16.95;2.28;;;;;;;;;;5150876;27;20055;-62
2022/01/30 03:44:12;;;;;;;18.88;2.45;;;;;;;;;;5150673;27;20085;-62
2022/01/30 03:46:39;;;;;;;16.83;2.70;;;;;;;;;;5150217;27;20078;-62
2022/01/30 03:49:20;;;;;;;20.48;3.03;;;;;;;;;;5150164;27;20135;-62
2022/01/30 03:51:46;;;;;;;15.07;2.60;;;;;;;;;;5150334;27;20047;-62
2022/01/30 03:54:13;;;;;;;11.30;2.03;;;;;;;;;;5149768;27;20061;-62
2022/01/30 03:56:39;;;;;;;22.10;2.55;;;;;;;;;;5150181;27;20047;-62
2022/01/30 03:59:05;;;;;;;20.73;2.33;;;;;;;;;;5149969;27;20055;-62
2022/01/30 04:01:32;;;;;;;12.98;2.33;;;;;;;;;;5149785;27;20078;-62
2022/01/30 04:03:58;;;;;;;14.52;1.98;;;;;;;;;;5150061;27;20488;-62
2022/01/30 04:06:25;;;;;;;13.00;2.15;;;;;;;;;;5150631;27;20059;-62
2022/01/30 04:08:51;;;;;;;15.20;2.38;;;;;;;;;;5150311;27;20496;-62
2022/01/30 04:11:17;;;;;;;19.30;3.10;;;;;;;;;;5149683;27;20122;-62
2022/01/30 04:13:44;;;;;;;16.92;2.83;;;;;;;;;;5149780;27;20512;-63
2022/01/30 04:16:10;;;;;;;23.85;2.88;;;;;;;;;;5149433;27;20054;-63
2022/01/30 04:18:37;;;;;;;14.32;2.45;;;;;;;;;;5149555;27;20500;-62
2022/01/30 04:21:03;;;;;;;22.63;3.17;;;;;;;;;;5148067;27;20896;-62
2022/01/30 04:23:30;;;;;;;19.33;2.53;;;;;;;;;;5150284;27;20478;-62
2022/01/30 04:25:56;;;;;;;23.40;3.35;;;;;;;;;;5149026;27;20051;-61
2022/01/30 04:28:23;;;;;;;24.85;3.42;;;;;;;;;;5149280;27;20051;-62
2022/01/30 04:30:49;;;;;;;23.67;2.78;;;;;;;;;;5149762;27;20047;-62
2022/01/30 04:33:16;;;;;;;25.55;2.78;;;;;;;;;;5149452;27;20962;-62
2022/01/30 04:35:42;;;;;;;20.25;3.33;;;;;;;;;;5149442;27;20497;-62
2022/01/30 04:57:21;;;;;;;18.35;2.65;;;;;;;;;;5149211;27;20043;-61
2022/01/30 05:00:09;;;;;;;32.70;2.67;;;;;;;;;;5149245;27;20047;-61
2022/01/30 05:05:53;;;;;;;17.67;2.50;;;;;;;;;;5114216;27;20135;-62
2022/01/30 05:08:20;;;;;;;29.58;2.65;;;;;;;;;;5148931;27;20057;-62
2022/01/30 05:10:46;;;;;;;31.17;3.70;;;;;;;;;;5149855;27;20714;-62
2022/01/30 05:13:17;;;;;;;23.00;3.45;;;;;;;;;;5148958;27;20906;-62
2022/01/30 05:15:44;;;;;;;24.27;3.67;;;;;;;;;;5148687;27;20548;-62
2022/01/30 05:18:10;;;;;;;16.75;3.20;;;;;;;;;;5148985;27;20122;-62
2022/01/30 05:20:37;;;;;;;26.48;3.92;;;;;;;;;;5149576;27;20057;-61
2022/01/30 05:23:04;;;;;;;29.33;3.15;;;;;;;;;;5148796;27;20058;-62
2022/01/30 05:25:30;;;;;;;27.98;3.60;;;;;;;;;;5149002;27;20053;-62
2022/01/30 05:27:56;;;;;;;17.10;2.90;;;;;;;;;;5148353;27;20593;-62
2022/01/30 05:30:23;;;;;;;17.92;3.05;;;;;;;;;;5148080;27;20066;-62
2022/01/30 05:32:49;;;;;;;30.80;4.05;;;;;;;;;;5151641;27;20051;-62
2022/01/30 05:35:16;;;;;;;18.45;3.25;;;;;;;;;;5152040;27;20059;-61
2022/01/30 05:37:42;;;;;;;25.65;3.95;;;;;;;;;;5152444;27;20053;-62
2022/01/30 05:40:09;;;;;;;20.75;3.35;;;;;;;;;;5151063;27;20052;-62
2022/01/30 05:42:37;;;;;;;22.70;3.75;;;;;;;;;;5152366;27;20055;-62
2022/01/30 05:45:17;;;;;;;27.48;3.95;;;;;;;;;;5152360;27;20052;-62
2022/01/30 05:47:48;;;;;;;30.83;4.10;;;;;;;;;;5152058;27;20134;-61
2022/01/30 05:50:14;;;;;;;23.98;3.47;;;;;;;;;;5151178;27;20186;-62
2022/01/30 05:52:42;;;;;;;30.52;4.63;;;;;;;;;;5152754;27;20493;-62
2022/01/30 05:55:09;;;;;;;21.15;3.13;;;;;;;;;;5152594;27;20059;-61
2022/01/30 05:57:35;;;;;;;22.83;3.65;;;;;;;;;;5152492;27;20496;-61
2022/01/30 06:00:03;;;;;;;24.38;4.78;;;;;;;;;;5152136;27;20047;-62
2022/01/30 06:02:29;;;;;;;26.27;4.27;;;;;;;;;;5152405;27;21330;-61
2022/01/30 06:04:55;;;;;;;26.90;3.95;;;;;;;;;;5152154;27;20051;-62
2022/01/30 06:07:27;;;;;;;16.35;2.53;;;;;;;;;;5151632;27;20051;-62
2022/01/30 06:09:54;;;;;;;19.17;2.88;;;;;;;;;;5151534;27;20077;-61
2022/01/30 06:12:20;;;;;;;17.92;2.85;;;;;;;;;;5152029;27;20051;-62
2022/01/30 06:14:47;;;;;;;34.20;3.72;;;;;;;;;;5151445;27;20054;-61
2022/01/30 06:17:16;;;;;;;27.92;3.65;;;;;;;;;;5151373;27;20055;-62
2022/01/30 06:19:42;;;;;;;26.55;3.78;;;;;;;;;;5151514;27;20137;-62
2022/01/30 06:22:09;;;;;;;25.75;3.08;;;;;;;;;;5152230;27;20066;-61
2022/01/30 06:24:35;;;;;;;20.50;3.08;;;;;;;;;;5151752;27;20058;-62
2022/01/30 06:27:01;;;;;;;30.27;3.30;;;;;;;;;;5151567;27;20192;-62
2022/01/30 06:29:28;;;;;;;30.80;3.53;;;;;;;;;;5151985;27;20070;-62
2022/01/30 06:31:54;;;;;;;28.70;3.80;;;;;;;;;;5152606;27;20055;-62
2022/01/30 06:34:20;;;;;;;20.13;3.65;;;;;;;;;;5152454;27;20055;-61
2022/01/30 06:36:47;;;;;;;24.60;4.40;;;;;;;;;;5153020;27;20047;-62
2022/01/30 06:39:13;;;;;;;23.70;3.22;;;;;;;;;;5151784;27;20507;-61
2022/01/30 06:41:39;;;;;;;24.65;3.88;;;;;;;;;;5152529;27;20054;-62
2022/01/30 06:44:07;;;;;;;25.80;3.78;;;;;;;;;;5150840;27;20057;-62
2022/01/30 06:46:34;;;;;;;25.27;3.63;;;;;;;;;;5152349;27;20108;-62
2022/01/30 06:49:01;;;;;;;22.77;3.47;;;;;;;;;;5151521;27;20051;-62
2022/01/30 06:51:27;;;;;;;29.42;3.80;;;;;;;;;;5152362;27;20053;-61
2022/01/30 06:53:53;;;;;;;23.40;3.57;;;;;;;;;;5152299;27;20053;-61
2022/01/30 06:56:20;;;;;;;32.85;3.75;;;;;;;;;;5152426;27;20055;-61
2022/01/30 06:58:46;;;;;;;35.53;5.35;;;;;;;;;;5152396;27;20058;-62
2022/01/30 07:01:12;;;;;;;25.52;4.22;;;;;;;;;;5152128;27;20063;-61
2022/01/30 07:03:39;;;;;;;27.73;3.85;;;;;;;;;;5152221;27;20051;-62
2022/01/30 07:06:05;;;;;;;17.52;3.10;;;;;;;;;;5152497;27;20051;-61
2022/01/30 07:08:31;;;;;;;24.88;4.22;;;;;;;;;;5152161;27;20057;-61
2022/01/30 07:10:58;;;;;;;27.90;4.38;;;;;;;;;;5151147;27;20070;-61
2022/01/30 07:13:24;;;;;;;24.02;3.35;;;;;;;;;;5152134;27;20047;-61
2022/01/30 07:15:50;;;;;;;24.85;3.60;;;;;;;;;;5151974;27;20063;-61
2022/01/30 07:18:17;;;;;;;30.08;3.53;;;;;;;;;;5151340;27;20051;-61
2022/01/30 07:20:44;;;;;;;24.35;3.45;;;;;;;;;;5151677;27;20513;-61
2022/01/30 07:23:10;;;;;;;25.67;3.47;;;;;;;;;;5151553;27;20302;-61
2022/01/30 07:25:37;;;;;;;24.73;3.45;;;;;;;;;;5152083;27;20505;-61
2022/01/30 07:28:03;;;;;;;32.58;4.13;;;;;;;;;;5152606;27;20142;-61
2022/01/30 07:30:29;;;;;;;27.55;4.05;;;;;;;;;;5151547;27;20498;-61
2022/01/30 07:32:55;;;;;;;25.52;4.07;;;;;;;;;;5151866;27;20059;-61
2022/01/30 07:35:22;;;;;;;23.83;3.95;;;;;;;;;;5151607;27;20147;-61
2022/01/30 07:37:51;;;;;;;27.75;4.28;;;;;;;;;;5152424;27;20069;-61
2022/01/30 07:40:17;;;;;;;40.92;4.80;;;;;;;;;;5150964;27;20053;-61
2022/01/30 07:42:43;;;;;;;23.83;4.18;;;;;;;;;;5152138;27;20047;-61
2022/01/30 07:45:10;;;;;;;37.17;5.25;;;;;;;;;;5151174;27;21192;-61
2022/01/30 07:47:36;;;;;;;27.65;4.40;;;;;;;;;;5151767;27;20101;-61
2022/01/30 07:50:03;;;;;;;33.20;4.15;;;;;;;;;;5150527;27;20051;-61
2022/01/30 07:52:30;;;;;;;29.33;4.22;;;;;;;;;;5151265;27;20183;-61
2022/01/30 07:54:57;;;;;;;26.35;3.65;;;;;;;;;;5150907;27;20065;-61
2022/01/30 07:57:23;;;;;;;21.80;3.38;;;;;;;;;;5150812;27;20061;-61
2022/01/30 07:59:49;;;;;;;37.08;5.90;;;;;;;;;;5151715;27;20058;-61
2022/01/30 08:02:16;;;;;;;35.47;4.63;;;;;;;;;;5151179;27;20047;-61
2022/01/30 08:04:43;;;;;;;25.70;3.92;;;;;;;;;;5151340;27;20218;-61
2022/01/30 08:07:09;;;;;;;22.55;3.28;;;;;;;;;;5150615;27;20057;-61
2022/01/30 08:09:36;;;;;;;28.35;3.97;;;;;;;;;;5150912;27;20055;-61
2022/01/30 08:12:02;;;;;;;23.38;4.32;;;;;;;;;;5150625;27;20058;-61
2022/01/30 08:14:29;;;;;;;29.98;5.10;;;;;;;;;;5150272;27;20580;-59
2022/01/30 08:16:55;;;;;;;33.25;4.90;;;;;;;;;;5150778;27;20047;-61
2022/01/30 08:19:24;;;;;;;28.13;4.15;;;;;;;;;;5151011;27;20509;-61
2022/01/30 08:21:52;;;;;;;27.48;4.47;;;;;;;;;;5149916;27;20090;-61
2022/01/30 08:24:19;;;;;;;29.05;4.10;;;;;;;;;;5150300;27;20057;-61
2022/01/30 08:26:46;;;;;;;28.80;3.92;;;;;;;;;;5150429;27;20160;-61
2022/01/30 08:29:12;;;;;;;21.92;4.00;;;;;;;;;;5150434;27;20051;-61
2022/01/30 08:31:38;;;;;;;29.67;4.53;;;;;;;;;;5150116;27;20057;-61
2022/01/30 08:34:05;;;;;;;26.67;3.65;;;;;;;;;;5150447;27;20055;-61
2022/01/30 08:36:31;;;;;;;25.33;4.43;;;;;;;;;;5150795;27;20511;-61
2022/01/30 08:38:57;;;;;;;29.95;3.88;;;;;;;;;;5150235;27;20059;-61
2022/01/30 08:41:24;;;;;;;38.22;4.45;;;;;;;;;;5150091;27;20508;-63
2022/01/30 08:43:50;;;;;;;26.45;4.57;;;;;;;;;;5150195;27;20511;-61
2022/01/30 08:46:17;;;;;;;22.98;4.28;;;;;;;;;;5150800;27;20055;-61
2022/01/30 08:48:43;;;;;;;34.28;4.07;;;;;;;;;;5149534;27;20078;-61
2022/01/30 08:51:09;;;;;;;28.77;4.10;;;;;;;;;;5150497;27;20055;-61
2022/01/30 08:53:36;;;;;;;28.17;5.45;;;;;;;;;;5151080;27;20504;-61
2022/01/30 08:56:02;;;;;;;33.15;4.55;;;;;;;;;;5149788;27;20047;-61
2022/01/30 08:58:30;;;;;;;34.25;4.00;;;;;;;;;;5149506;27;20058;-61
2022/01/30 09:00:56;;;;;;;23.88;3.22;;;;;;;;;;5150476;27;20051;-61
2022/01/30 09:03:23;;;;;;;30.17;4.82;;;;;;;;;;5149821;27;20074;-62
2022/01/30 09:05:49;;;;;;;25.55;3.92;;;;;;;;;;5150522;27;20078;-61
2022/01/30 09:08:16;;;;;;;27.63;3.65;;;;;;;;;;5150668;27;20044;-61
2022/01/30 09:10:42;;;;;;;24.70;3.85;;;;;;;;;;5149998;27;20051;-61
2022/01/30 09:13:08;;;;;;;32.70;4.85;;;;;;;;;;5149047;27;20880;-62
2022/01/30 09:15:40;;;;;;;29.60;4.32;;;;;;;;;;5149534;27;20078;-61
2022/01/30 09:18:10;;;;;;;38.30;4.43;;;;;;;;;;5149979;27;20051;-62
2022/01/30 09:20:39;;;;;;;27.00;4.18;;;;;;;;;;5149922;27;20049;-61
2022/01/30 09:23:05;;;;;;;38.13;4.72;;;;;;;;;;5149531;27;20108;-62
2022/01/30 09:25:32;;;;;;;24.08;4.18;;;;;;;;;;5149429;27;20047;-61
2022/01/30 09:27:58;;;;;;;36.90;5.07;;;;;;;;;;5150006;27;20535;-64
2022/01/30 09:30:24;;;;;;;26.23;4.13;;;;;;;;;;5150463;27;20043;-62
2022/01/30 09:32:51;;;;;;;35.28;4.40;;;;;;;;;;5149724;27;20515;-65
2022/01/30 09:35:17;;;;;;;26.10;4.13;;;;;;;;;;5149367;27;20055;-62
2022/01/30 09:37:43;;;;;;;35.28;4.47;;;;;;;;;;5149041;27;20057;-62
2022/01/30 09:40:10;;;;;;;26.77;3.78;;;;;;;;;;5149100;27;20082;-63
2022/01/30 09:42:36;;;;;;;30.30;4.90;;;;;;;;;;5149733;27;20051;-63
2022/01/30 09:45:04;;;;;;;23.33;4.88;;;;;;;;;;5149722;27;20047;-61
2022/01/30 09:47:31;;;;;;;33.35;5.20;;;;;;;;;;5149543;27;20053;-62
2022/01/30 09:49:58;;;;;;;44.05;5.15;;;;;;;;;;5149137;27;20043;-62
2022/01/30 09:52:25;;;;;;;25.43;3.47;;;;;;;;;;5149097;27;20495;-63
2022/01/30 09:54:51;;;;;;;34.35;4.20;;;;;;;;;;5149003;27;20058;-63
2022/01/30 09:57:18;;;;;;;35.35;5.38;;;;;;;;;;5149121;27;20051;-63
2022/01/30 09:59:45;;;;;;;29.40;4.57;;;;;;;;;;5149605;27;20436;-61
2022/01/30 10:02:12;;;;;;;27.35;5.05;;;;;;;;;;5149313;27;20043;-61
2022/01/30 10:04:40;;;;;;;21.27;4.38;;;;;;;;;;5138587;27;20100;-62
2022/01/30 10:07:15;;;;;;;39.00;5.15;;;;;;;;;;5145338;27;20501;-62
2022/01/30 10:09:47;;;;;;;28.27;4.70;;;;;;;;;;5148926;27;20058;-61
2022/01/30 10:12:19;;;;;;;29.90;4.63;;;;;;;;;;5149049;27;20058;-62
2022/01/30 10:14:51;;;;;;;34.38;4.80;;;;;;;;;;5149533;27;20051;-64
2022/01/30 10:17:25;;;;;;;28.88;5.72;;;;;;;;;;5148993;27;20057;-61
2022/01/30 10:20:00;;;;;;;33.13;4.15;;;;;;;;;;5152722;27;20112;-61
2022/01/30 10:22:27;;;;;;;37.58;5.22;;;;;;;;;;5153169;27;20051;-61
2022/01/30 10:24:53;;;;;;;37.60;4.88;;;;;;;;;;5151721;27;20150;-63
2022/01/30 10:27:20;;;;;;;31.77;4.82;;;;;;;;;;5152621;27;20484;-62
2022/01/30 10:29:56;;;;;;;31.20;5.22;;;;;;;;;;5152335;27;20058;-63
2022/01/30 10:32:23;;;;;;;28.90;4.53;;;;;;;;;;5152589;27;20538;-62
2022/01/30 10:35:01;;;;;;;43.25;5.00;;;;;;;;;;5153134;27;20888;-62
2022/01/30 10:37:32;;;;;;;32.65;5.53;;;;;;;;;;5151995;27;20082;-63
2022/01/30 10:40:19;;;;;;;32.92;4.88;;;;;;;;;;5153124;27;20071;-62
2022/01/30 10:42:50;;;;;;;33.05;5.15;;;;;;;;;;5152154;27;20169;-62
2022/01/30 10:45:16;;;;;;;35.90;5.07;;;;;;;;;;5151313;27;20054;-62
2022/01/30 10:47:43;;;;;;;33.80;5.30;;;;;;;;;;5152252;27;20583;-62
2022/01/30 10:50:14;;;;;;;30.27;5.00;;;;;;;;;;5151866;27;20058;-62
2022/01/30 10:52:53;;;;;;;28.52;4.65;;;;;;;;;;5152601;27;20055;-62
2022/01/30 10:55:33;;;;;;;40.53;5.28;;;;;;;;;;5151679;27;20059;-62
2022/01/30 10:58:01;;;;;;;33.83;4.68;;;;;;;;;;5152474;27;20047;-62
2022/01/30 11:00:39;;;;;;;26.40;4.30;;;;;;;;;;5151803;27;20059;-62
2022/01/30 11:03:06;;;;;;;23.25;4.47;;;;;;;;;;5151674;27;20050;-62
2022/01/30 11:05:50;;;;;;;38.45;5.18;;;;;;;;;;5152151;27;20507;-62
2022/01/30 11:08:23;;;;;;;28.52;4.90;;;;;;;;;;5151932;27;20111;-62
2022/01/30 11:19:19;;;;;;;37.42;5.10;;;;;;;;;;5150767;27;20572;-62
2022/01/30 11:22:12;;;;;;;40.63;5.03;;;;;;;;;;5152365;27;20523;-62
2022/01/30 11:24:42;;;;;;;33.65;5.20;;;;;;;;;;5146775;27;20104;-62
2022/01/30 11:27:08;;;;;;;26.40;4.47;;;;;;;;;;5151748;27;20497;-62
2022/01/30 11:29:36;;;;;;;28.75;4.35;;;;;;;;;;5151427;27;20496;-62
2022/01/30 11:32:05;;;;;;;42.72;5.15;;;;;;;;;;5151700;27;20046;-62
2022/01/30 11:34:35;;;;;;;39.25;6.28;;;;;;;;;;5151296;27;20074;-62
2022/01/30 11:37:02;;;;;;;36.00;5.10;;;;;;;;;;5151215;27;20055;-62
2022/01/30 11:39:28;;;;;;;37.67;5.07;;;;;;;;;;5151049;27;20076;-62
2022/01/30 11:42:20;;;;;;;28.48;4.53;;;;;;;;;;5151279;27;20432;-62
2022/01/30 11:44:48;;;;;;;31.10;4.50;;;;;;;;;;5151365;27;20135;-62
2022/01/30 11:47:15;;;;;;;24.60;4.10;;;;;;;;;;5150909;27;20057;-62
2022/01/30 11:49:42;;;;;;;30.52;4.20;;;;;;;;;;5150982;27;20055;-62
2022/01/30 11:52:10;;;;;;;28.90;4.30;;;;;;;;;;5149954;27;20496;-62
2022/01/30 11:54:36;;;;;;;29.13;4.65;;;;;;;;;;5151483;27;20051;-62
2022/01/30 11:57:03;;;;;;;27.30;4.13;;;;;;;;;;5151196;27;20081;-62
2022/01/30 11:59:37;;;;;;;27.02;4.50;;;;;;;;;;5150925;27;20058;-62
2022/01/30 12:02:23;;;;;;;28.20;4.35;;;;;;;;;;5150799;27;20532;-63
2022/01/30 12:04:59;;;;;;;26.63;4.32;;;;;;;;;;5150899;27;20055;-62
2022/01/30 12:07:42;;;;;;;23.85;3.65;;;;;;;;;;5151535;27;20051;-62
2022/01/30 12:10:29;;;;;;;26.58;3.95;;;;;;;;;;5150709;27;20137;-62
2022/01/30 12:13:01;;;;;;;28.55;4.78;;;;;;;;;;5151418;27;20428;-62
2022/01/30 12:15:40;;;;;;;27.83;5.65;;;;;;;;;;5150660;27;20055;-62
2022/01/30 12:18:27;;;;;;;33.33;5.03;;;;;;;;;;5150693;27;20059;-62
2022/01/30 12:20:56;;;;;;;32.78;4.25;;;;;;;;;;5149163;27;20075;-62
2022/01/30 12:23:29;;;;;;;37.65;4.72;;;;;;;;;;5150281;27;20047;-62
2022/01/30 12:26:05;;;;;;;32.90;4.07;;;;;;;;;;5150780;27;20595;-62
2022/01/30 12:28:50;;;;;;;26.55;4.25;;;;;;;;;;5151038;27;20084;-62
2022/01/30 12:31:33;;;;;;;30.20;4.30;;;;;;;;;;5150790;27;20059;-64
2022/01/30 12:34:03;;;;;;;25.73;4.70;;;;;;;;;;5150716;27;20054;-61
2022/01/30 12:36:33;;;;;;;33.63;4.05;;;;;;;;;;5150701;27;20057;-62
2022/01/30 12:39:01;;;;;;;31.65;4.82;;;;;;;;;;5150199;27;20061;-62
2022/01/30 12:41:28;;;;;;;25.33;4.15;;;;;;;;;;5148862;27;20051;-63
2022/01/30 12:43:59;;;;;;;24.63;4.47;;;;;;;;;;5150036;27;20112;-62
2022/01/30 12:46:27;;;;;;;28.35;4.68;;;;;;;;;;5150214;27;20151;-63
2022/01/30 12:48:59;;;;;;;33.17;4.73;;;;;;;;;;5149682;27;20134;-62
2022/01/30 12:51:29;;;;;;;30.75;4.55;;;;;;;;;;5150729;27;20269;-63
2022/01/30 12:53:56;;;;;;;29.45;4.57;;;;;;;;;;5150868;27;20051;-62
2022/01/30 12:56:23;;;;;;;33.65;4.50;;;;;;;;;;5149616;27;20051;-62
2022/01/30 12:58:53;;;;;;;27.13;4.90;;;;;;;;;;5149509;27;20059;-63
2022/01/30 13:01:23;;;;;;;25.15;3.75;;;;;;;;;;5149935;27;20054;-62
2022/01/30 13:04:10;;;;;;;28.67;4.10;;;;;;;;;;5150200;27;20880;-62
2022/01/30 13:06:47;;;;;;;28.05;4.43;;;;;;;;;;5149761;27;20059;-62
2022/01/30 13:09:21;;;;;;;29.63;4.55;;;;;;;;;;5150057;27;20061;-62
2022/01/30 13:11:48;;;;;;;27.83;5.22;;;;;;;;;;5150169;27;20047;-62
2022/01/30 13:14:15;;;;;;;30.85;4.78;;;;;;;;;;5150691;27;20047;-62
2022/01/30 13:16:41;;;;;;;33.17;5.25;;;;;;;;;;5149333;27;20051;-62
2022/01/30 13:19:09;;;;;;;23.45;4.18;;;;;;;;;;5149676;27;20515;-62
2022/01/30 13:21:36;;;;;;;26.83;3.50;;;;;;;;;;5150231;27;20055;-62
2022/01/30 13:24:03;;;;;;;38.17;5.15;;;;;;;;;;5149999;27;20051;-62
2022/01/30 13:26:40;;;;;;;31.65;4.60;;;;;;;;;;5149763;27;20069;-62
2022/01/30 13:29:08;;;;;;;26.70;4.05;;;;;;;;;;5149438;27;20054;-62
2022/01/30 13:31:34;;;;;;;29.63;4.07;;;;;;;;;;5149977;27;20058;-62
2022/01/30 13:34:09;;;;;;;26.98;4.03;;;;;;;;;;5149806;27;20108;-62
2022/01/30 13:36:35;;;;;;;26.63;3.95;;;;;;;;;;5149876;27;20047;-62
2022/01/30 13:39:07;;;;;;;29.52;4.38;;;;;;;;;;5149633;27;20055;-62
2022/01/30 13:41:43;;;;;;;36.78;4.90;;;;;;;;;;5149585;27;20067;-62
2022/01/30 13:44:22;;;;;;;20.15;3.63;;;;;;;;;;5148740;27;20130;-63
2022/01/30 13:47:03;;;;;;;31.00;4.55;;;;;;;;;;5132374;27;20059;-62
2022/01/30 13:49:29;;;;;;;26.38;3.58;;;;;;;;;;5148705;27;20055;-62
2022/01/30 13:52:06;;;;;;;30.10;4.20;;;;;;;;;;5149498;27;20043;-63
2022/01/30 13:54:33;;;;;;;34.10;5.18;;;;;;;;;;5153296;27;20142;-62
2022/01/30 13:57:06;;;;;;;38.53;5.05;;;;;;;;;;5152805;27;20058;-63
2022/01/30 13:59:33;;;;;;;23.67;4.13;;;;;;;;;;5153245;27;20059;-62
2022/01/30 14:02:02;;;;;;;29.70;4.50;;;;;;;;;;5152009;27;20058;-62
2022/01/30 14:04:32;;;;;;;28.00;4.10;;;;;;;;;;5152529;27;20509;-62
2022/01/30 14:07:00;;;;;;;24.50;3.80;;;;;;;;;;5152672;27;20057;-62
2022/01/30 14:09:36;;;;;;;28.42;4.55;;;;;;;;;;5152915;27;20051;-62
2022/01/30 14:12:03;;;;;;;32.58;4.60;;;;;;;;;;5153194;27;20106;-62
2022/01/30 14:14:33;;;;;;;28.83;4.18;;;;;;;;;;5151877;27;20062;-62
2022/01/30 14:17:01;;;;;;;31.08;4.18;;;;;;;;;;5152674;27;20489;-62
2022/01/30 14:19:52;;;;;;;26.08;4.30;;;;;;;;;;5152828;27;20419;-62
2022/01/30 14:22:19;;;;;;;23.73;4.22;;;;;;;;;;5153523;27;20043;-62
2022/01/30 14:24:47;;;;;;;29.92;4.63;;;;;;;;;;5152634;27;20503;-62
2022/01/30 14:27:14;;;;;;;32.43;4.33;;;;;;;;;;5152391;27;20058;-62
2022/01/30 14:29:40;;;;;;;25.92;4.13;;;;;;;;;;5152765;27;20531;-62
2022/01/30 14:32:20;;;;;;;26.65;5.28;;;;;;;;;;5152198;27;20108;-63
2022/01/30 14:34:47;;;;;;;30.85;4.82;;;;;;;;;;5152573;27;20061;-63
2022/01/30 14:37:13;;;;;;;27.98;5.55;;;;;;;;;;5151910;27;20051;-62
2022/01/30 14:39:40;;;;;;;27.35;4.90;;;;;;;;;;5152352;27;20051;-62
2022/01/30 14:42:10;;;;;;;23.90;4.97;;;;;;;;;;5152247;27;20467;-63
2022/01/30 14:44:37;;;;;;;26.65;5.00;;;;;;;;;;5152413;27;20086;-62
2022/01/30 14:47:04;;;;;;;30.00;4.35;;;;;;;;;;5151526;27;20385;-62
2022/01/30 14:49:30;;;;;;;29.55;4.25;;;;;;;;;;5151410;27;20593;-62
2022/01/30 14:51:57;;;;;;;32.10;4.55;;;;;;;;;;5151855;27;20057;-62
2022/01/30 14:54:24;;;;;;;36.83;5.20;;;;;;;;;;5152241;27;20511;-62
2022/01/30 14:56:50;;;;;;;32.72;4.32;;;;;;;;;;5152068;27;20051;-62
2022/01/30 14:59:16;;;;;;;39.92;4.60;;;;;;;;;;5151669;27;20059;-63
2022/01/30 15:01:43;;;;;;;27.30;4.50;;;;;;;;;;5152114;27;20059;-62
2022/01/30 15:04:10;;;;;;;35.92;4.53;;;;;;;;;;5151633;27;20047;-61
2022/01/30 15:06:37;;;;;;;17.67;3.97;;;;;;;;;;5152054;27;20496;-62
2022/01/30 15:09:04;;;;;;;35.15;6.03;;;;;;;;;;5152004;27;20167;-62
2022/01/30 15:11:30;;;;;;;29.42;4.22;;;;;;;;;;5152020;27;20116;-62
2022/01/30 15:13:57;;;;;;;23.92;3.80;;;;;;;;;;5151474;27;20051;-61
2022/01/30 15:16:38;;;;;;;32.50;4.57;;;;;;;;;;5151267;27;20059;-61
2022/01/30 15:19:06;;;;;;;26.27;4.32;;;;;;;;;;5151470;27;20047;-62
2022/01/30 15:21:32;;;;;;;25.55;4.82;;;;;;;;;;5151516;27;20087;-62
2022/01/30 15:23:58;;;;;;;29.98;4.47;;;;;;;;;;5151285;27;20084;-61
2022/01/30 15:26:25;;;;;;;28.25;4.38;;;;;;;;;;5152532;27;20059;-61
2022/01/30 15:28:51;;;;;;;30.30;4.57;;;;;;;;;;5151005;27;20048;-62
2022/01/30 15:31:18;;;;;;;31.52;5.53;;;;;;;;;;5150845;27;20058;-62